sensor_id;sensor_type;location;lat;lon;timestamp;P1;durP1;ratioP1;P2;durP2;ratioP2
16862;SDS011;52193;48.216;-1.698;2022-12-22T00:02:01;30.77;;;15.00;;
16862;SDS011;52193;48.216;-1.698;2022-12-22T00:04:55;27.42;;;14.45;;
16862;SDS011;52193;48.216;-1.698;2022-12-22T00:07:41;28.92;;;14.43;;
16862;SDS011;52193;48.216;-1.698;2022-12-22T00:10:25;23.55;;;13.80;;
16862;SDS011;52193;48.216;-1.698;2022-12-22T00:13:09;28.48;;;14.48;;
16862;SDS011;52193;48.216;-1.698;2022-12-22T00:15:55;29.70;;;14.23;;
16862;SDS011;52193;48.216;-1.698;2022-12-22T00:18:40;29.00;;;14.00;;
16862;SDS011;52193;48.216;-1.698;2022-12-22T00:21:25;29.77;;;14.35;;
16862;SDS011;52193;48.216;-1.698;2022-12-22T00:24:14;27.17;;;14.68;;
16862;SDS011;52193;48.216;-1.698;2022-12-22T00:26:58;27.35;;;15.15;;
16862;SDS011;52193;48.216;-1.698;2022-12-22T00:29:43;29.02;;;15.10;;
16862;SDS011;52193;48.216;-1.698;2022-12-22T00:32:31;29.98;;;15.10;;
16862;SDS011;52193;48.216;-1.698;2022-12-22T00:35:17;31.67;;;15.32;;
16862;SDS011;52193;48.216;-1.698;2022-12-22T00:38:08;33.25;;;14.68;;
16862;SDS011;52193;48.216;-1.698;2022-12-22T00:40:58;33.53;;;14.30;;
16862;SDS011;52193;48.216;-1.698;2022-12-22T00:43:42;31.08;;;14.30;;
16862;SDS011;52193;48.216;-1.698;2022-12-22T00:46:27;26.77;;;13.88;;
16862;SDS011;52193;48.216;-1.698;2022-12-22T00:49:12;31.13;;;13.93;;
16862;SDS011;52193;48.216;-1.698;2022-12-22T00:51:57;27.95;;;14.38;;
16862;SDS011;52193;48.216;-1.698;2022-12-22T00:54:41;27.95;;;13.70;;
16862;SDS011;52193;48.216;-1.698;2022-12-22T00:57:27;29.55;;;14.50;;
16862;SDS011;52193;48.216;-1.698;2022-12-22T01:00:13;32.08;;;14.25;;
16862;SDS011;52193;48.216;-1.698;2022-12-22T01:02:59;27.25;;;13.55;;
16862;SDS011;52193;48.216;-1.698;2022-12-22T01:05:43;28.33;;;13.68;;
16862;SDS011;52193;48.216;-1.698;2022-12-22T01:08:28;26.00;;;13.02;;
16862;SDS011;52193;48.216;-1.698;2022-12-22T01:11:13;27.80;;;14.10;;
16862;SDS011;52193;48.216;-1.698;2022-12-22T01:13:58;35.38;;;14.38;;
16862;SDS011;52193;48.216;-1.698;2022-12-22T01:16:43;33.10;;;14.60;;
16862;SDS011;52193;48.216;-1.698;2022-12-22T01:19:27;28.95;;;13.43;;
16862;SDS011;52193;48.216;-1.698;2022-12-22T01:22:11;30.30;;;13.88;;
16862;SDS011;52193;48.216;-1.698;2022-12-22T01:25:00;31.70;;;13.95;;
16862;SDS011;52193;48.216;-1.698;2022-12-22T01:27:45;34.17;;;14.30;;
16862;SDS011;52193;48.216;-1.698;2022-12-22T01:30:31;30.30;;;14.00;;
16862;SDS011;52193;48.216;-1.698;2022-12-22T01:33:15;39.47;;;14.73;;
16862;SDS011;52193;48.216;-1.698;2022-12-22T01:35:59;37.92;;;15.38;;
16862;SDS011;52193;48.216;-1.698;2022-12-22T01:38:43;33.17;;;14.15;;
16862;SDS011;52193;48.216;-1.698;2022-12-22T01:41:27;35.60;;;14.88;;
16862;SDS011;52193;48.216;-1.698;2022-12-22T01:44:12;40.25;;;15.07;;
16862;SDS011;52193;48.216;-1.698;2022-12-22T01:50:23;42.13;;;15.73;;
16862;SDS011;52193;48.216;-1.698;2022-12-22T01:53:12;42.92;;;16.58;;
16862;SDS011;52193;48.216;-1.698;2022-12-22T01:56:00;43.92;;;16.83;;
16862;SDS011;52193;48.216;-1.698;2022-12-22T01:58:45;43.00;;;16.95;;
16862;SDS011;52193;48.216;-1.698;2022-12-22T02:01:32;42.08;;;16.02;;
16862;SDS011;52193;48.216;-1.698;2022-12-22T02:04:19;38.45;;;15.55;;
16862;SDS011;52193;48.216;-1.698;2022-12-22T02:07:09;43.13;;;17.15;;
16862;SDS011;52193;48.216;-1.698;2022-12-22T02:10:06;43.90;;;16.88;;
16862;SDS011;52193;48.216;-1.698;2022-12-22T02:13:07;42.83;;;16.90;;
16862;SDS011;52193;48.216;-1.698;2022-12-22T02:16:03;46.50;;;17.80;;
16862;SDS011;52193;48.216;-1.698;2022-12-22T02:18:59;37.78;;;15.07;;
16862;SDS011;52193;48.216;-1.698;2022-12-22T02:21:54;49.70;;;16.63;;
16862;SDS011;52193;48.216;-1.698;2022-12-22T02:24:52;44.95;;;16.17;;
16862;SDS011;52193;48.216;-1.698;2022-12-22T02:27:44;46.78;;;16.52;;
16862;SDS011;52193;48.216;-1.698;2022-12-22T02:30:32;42.45;;;17.65;;
16862;SDS011;52193;48.216;-1.698;2022-12-22T02:33:18;46.10;;;17.50;;
16862;SDS011;52193;48.216;-1.698;2022-12-22T02:36:06;47.92;;;17.67;;
16862;SDS011;52193;48.216;-1.698;2022-12-22T02:38:59;54.13;;;18.55;;
16862;SDS011;52193;48.216;-1.698;2022-12-22T02:41:55;48.58;;;18.05;;
16862;SDS011;52193;48.216;-1.698;2022-12-22T02:44:57;47.20;;;17.38;;
16862;SDS011;52193;48.216;-1.698;2022-12-22T02:47:55;51.65;;;17.98;;
16862;SDS011;52193;48.216;-1.698;2022-12-22T02:50:48;49.53;;;18.20;;
16862;SDS011;52193;48.216;-1.698;2022-12-22T02:53:37;59.20;;;18.77;;
16862;SDS011;52193;48.216;-1.698;2022-12-22T02:56:22;50.78;;;19.05;;
16862;SDS011;52193;48.216;-1.698;2022-12-22T02:59:07;49.28;;;18.10;;
16862;SDS011;52193;48.216;-1.698;2022-12-22T03:01:53;53.80;;;18.42;;
16862;SDS011;52193;48.216;-1.698;2022-12-22T03:04:38;53.72;;;18.92;;
16862;SDS011;52193;48.216;-1.698;2022-12-22T03:07:22;59.92;;;18.48;;
16862;SDS011;52193;48.216;-1.698;2022-12-22T03:10:07;54.25;;;17.92;;
16862;SDS011;52193;48.216;-1.698;2022-12-22T03:12:52;59.90;;;19.00;;
16862;SDS011;52193;48.216;-1.698;2022-12-22T03:15:40;51.45;;;18.42;;
16862;SDS011;52193;48.216;-1.698;2022-12-22T03:18:26;57.80;;;19.10;;
16862;SDS011;52193;48.216;-1.698;2022-12-22T03:21:10;56.30;;;19.58;;
16862;SDS011;52193;48.216;-1.698;2022-12-22T03:23:54;53.05;;;18.42;;
16862;SDS011;52193;48.216;-1.698;2022-12-22T03:26:38;55.72;;;19.15;;
16862;SDS011;52193;48.216;-1.698;2022-12-22T03:29:05;54.15;;;18.95;;
16862;SDS011;52193;48.216;-1.698;2022-12-22T03:31:32;61.78;;;20.20;;
16862;SDS011;52193;48.216;-1.698;2022-12-22T03:34:01;56.05;;;18.48;;
16862;SDS011;52193;48.216;-1.698;2022-12-22T03:36:28;55.10;;;19.23;;
16862;SDS011;52193;48.216;-1.698;2022-12-22T03:38:55;61.72;;;18.55;;
16862;SDS011;52193;48.216;-1.698;2022-12-22T03:41:22;56.42;;;18.88;;
16862;SDS011;52193;48.216;-1.698;2022-12-22T03:44:15;62.13;;;19.27;;
16862;SDS011;52193;48.216;-1.698;2022-12-22T03:46:59;46.67;;;18.73;;
16862;SDS011;52193;48.216;-1.698;2022-12-22T03:49:28;63.88;;;19.85;;
16862;SDS011;52193;48.216;-1.698;2022-12-22T03:51:55;51.28;;;17.73;;
16862;SDS011;52193;48.216;-1.698;2022-12-22T03:54:24;59.38;;;18.67;;
16862;SDS011;52193;48.216;-1.698;2022-12-22T03:56:51;55.05;;;19.08;;
16862;SDS011;52193;48.216;-1.698;2022-12-22T03:59:19;52.47;;;18.40;;
16862;SDS011;52193;48.216;-1.698;2022-12-22T04:01:47;56.33;;;19.02;;
16862;SDS011;52193;48.216;-1.698;2022-12-22T04:04:16;61.40;;;19.92;;
16862;SDS011;52193;48.216;-1.698;2022-12-22T04:06:46;54.42;;;19.20;;
16862;SDS011;52193;48.216;-1.698;2022-12-22T04:09:13;67.43;;;20.70;;
16862;SDS011;52193;48.216;-1.698;2022-12-22T04:11:40;60.78;;;19.95;;
16862;SDS011;52193;48.216;-1.698;2022-12-22T04:14:25;56.63;;;18.17;;
16862;SDS011;52193;48.216;-1.698;2022-12-22T04:16:53;51.40;;;18.80;;
16862;SDS011;52193;48.216;-1.698;2022-12-22T04:19:20;54.00;;;18.67;;
16862;SDS011;52193;48.216;-1.698;2022-12-22T04:21:50;56.05;;;19.38;;
16862;SDS011;52193;48.216;-1.698;2022-12-22T04:24:17;47.70;;;17.45;;
16862;SDS011;52193;48.216;-1.698;2022-12-22T04:26:44;53.65;;;18.67;;
16862;SDS011;52193;48.216;-1.698;2022-12-22T04:29:11;53.05;;;17.92;;
16862;SDS011;52193;48.216;-1.698;2022-12-22T04:31:38;52.20;;;18.45;;
16862;SDS011;52193;48.216;-1.698;2022-12-22T04:34:05;52.63;;;19.27;;
16862;SDS011;52193;48.216;-1.698;2022-12-22T04:36:32;51.00;;;18.00;;
16862;SDS011;52193;48.216;-1.698;2022-12-22T04:39:00;50.72;;;18.25;;
16862;SDS011;52193;48.216;-1.698;2022-12-22T04:41:27;46.38;;;18.35;;
16862;SDS011;52193;48.216;-1.698;2022-12-22T04:43:54;52.83;;;18.73;;
16862;SDS011;52193;48.216;-1.698;2022-12-22T04:46:21;48.67;;;18.45;;
16862;SDS011;52193;48.216;-1.698;2022-12-22T04:48:48;51.78;;;18.13;;
16862;SDS011;52193;48.216;-1.698;2022-12-22T04:51:15;51.38;;;17.80;;
16862;SDS011;52193;48.216;-1.698;2022-12-22T04:53:42;46.10;;;17.42;;
16862;SDS011;52193;48.216;-1.698;2022-12-22T04:56:10;47.22;;;18.30;;
16862;SDS011;52193;48.216;-1.698;2022-12-22T04:58:37;54.67;;;18.83;;
16862;SDS011;52193;48.216;-1.698;2022-12-22T05:01:08;54.55;;;19.05;;
16862;SDS011;52193;48.216;-1.698;2022-12-22T05:03:36;55.55;;;18.95;;
16862;SDS011;52193;48.216;-1.698;2022-12-22T05:06:04;53.60;;;18.30;;
16862;SDS011;52193;48.216;-1.698;2022-12-22T05:08:31;51.72;;;17.50;;
16862;SDS011;52193;48.216;-1.698;2022-12-22T05:10:58;51.33;;;18.77;;
16862;SDS011;52193;48.216;-1.698;2022-12-22T05:13:28;55.95;;;19.02;;
16862;SDS011;52193;48.216;-1.698;2022-12-22T05:16:01;52.85;;;18.13;;
16862;SDS011;52193;48.216;-1.698;2022-12-22T05:18:28;51.35;;;18.48;;
16862;SDS011;52193;48.216;-1.698;2022-12-22T05:20:55;57.65;;;18.27;;
16862;SDS011;52193;48.216;-1.698;2022-12-22T05:23:22;54.88;;;18.38;;
16862;SDS011;52193;48.216;-1.698;2022-12-22T05:25:49;55.53;;;18.92;;
16862;SDS011;52193;48.216;-1.698;2022-12-22T05:28:16;46.00;;;17.95;;
16862;SDS011;52193;48.216;-1.698;2022-12-22T05:30:45;52.35;;;18.70;;
16862;SDS011;52193;48.216;-1.698;2022-12-22T05:33:12;45.22;;;17.13;;
16862;SDS011;52193;48.216;-1.698;2022-12-22T05:35:39;50.42;;;17.88;;
16862;SDS011;52193;48.216;-1.698;2022-12-22T05:38:05;58.15;;;19.20;;
16862;SDS011;52193;48.216;-1.698;2022-12-22T05:40:32;49.97;;;18.10;;
16862;SDS011;52193;48.216;-1.698;2022-12-22T05:42:59;50.22;;;17.08;;
16862;SDS011;52193;48.216;-1.698;2022-12-22T05:45:26;55.95;;;17.27;;
16862;SDS011;52193;48.216;-1.698;2022-12-22T05:47:55;54.38;;;18.13;;
16862;SDS011;52193;48.216;-1.698;2022-12-22T05:50:23;53.67;;;18.17;;
16862;SDS011;52193;48.216;-1.698;2022-12-22T05:52:51;51.28;;;18.58;;
16862;SDS011;52193;48.216;-1.698;2022-12-22T05:55:19;45.72;;;17.55;;
16862;SDS011;52193;48.216;-1.698;2022-12-22T05:57:46;46.25;;;17.30;;
16862;SDS011;52193;48.216;-1.698;2022-12-22T06:00:14;46.30;;;17.98;;
16862;SDS011;52193;48.216;-1.698;2022-12-22T06:02:42;51.92;;;18.80;;
16862;SDS011;52193;48.216;-1.698;2022-12-22T06:05:12;51.05;;;17.80;;
16862;SDS011;52193;48.216;-1.698;2022-12-22T06:07:39;55.03;;;18.90;;
16862;SDS011;52193;48.216;-1.698;2022-12-22T06:10:07;51.45;;;18.05;;
16862;SDS011;52193;48.216;-1.698;2022-12-22T06:12:35;58.10;;;19.60;;
16862;SDS011;52193;48.216;-1.698;2022-12-22T06:15:02;46.75;;;17.52;;
16862;SDS011;52193;48.216;-1.698;2022-12-22T06:17:29;59.90;;;19.45;;
16862;SDS011;52193;48.216;-1.698;2022-12-22T06:19:56;58.10;;;19.73;;
16862;SDS011;52193;48.216;-1.698;2022-12-22T06:22:25;50.55;;;19.10;;
16862;SDS011;52193;48.216;-1.698;2022-12-22T06:24:52;50.45;;;17.92;;
16862;SDS011;52193;48.216;-1.698;2022-12-22T06:27:18;54.72;;;18.98;;
16862;SDS011;52193;48.216;-1.698;2022-12-22T06:29:45;53.03;;;18.15;;
16862;SDS011;52193;48.216;-1.698;2022-12-22T06:32:12;51.60;;;18.42;;
16862;SDS011;52193;48.216;-1.698;2022-12-22T06:34:39;52.40;;;18.08;;
16862;SDS011;52193;48.216;-1.698;2022-12-22T06:37:06;52.28;;;18.33;;
16862;SDS011;52193;48.216;-1.698;2022-12-22T06:39:35;51.70;;;17.77;;
16862;SDS011;52193;48.216;-1.698;2022-12-22T06:42:02;56.63;;;18.25;;
16862;SDS011;52193;48.216;-1.698;2022-12-22T06:44:46;46.15;;;17.83;;
16862;SDS011;52193;48.216;-1.698;2022-12-22T06:47:14;54.30;;;19.08;;
16862;SDS011;52193;48.216;-1.698;2022-12-22T06:49:41;55.35;;;19.25;;
16862;SDS011;52193;48.216;-1.698;2022-12-22T06:52:08;56.92;;;18.70;;
16862;SDS011;52193;48.216;-1.698;2022-12-22T06:54:37;49.30;;;18.33;;
16862;SDS011;52193;48.216;-1.698;2022-12-22T06:57:04;46.17;;;18.17;;
16862;SDS011;52193;48.216;-1.698;2022-12-22T06:59:30;56.60;;;18.60;;
16862;SDS011;52193;48.216;-1.698;2022-12-22T07:01:57;51.40;;;18.77;;
16862;SDS011;52193;48.216;-1.698;2022-12-22T07:04:24;51.55;;;19.15;;
16862;SDS011;52193;48.216;-1.698;2022-12-22T07:06:52;55.97;;;17.60;;
16862;SDS011;52193;48.216;-1.698;2022-12-22T07:09:19;51.03;;;19.00;;
16862;SDS011;52193;48.216;-1.698;2022-12-22T07:11:48;42.30;;;17.33;;
16862;SDS011;52193;48.216;-1.698;2022-12-22T07:14:15;48.92;;;17.70;;
16862;SDS011;52193;48.216;-1.698;2022-12-22T07:16:42;55.35;;;18.83;;
16862;SDS011;52193;48.216;-1.698;2022-12-22T07:19:09;49.75;;;17.90;;
16862;SDS011;52193;48.216;-1.698;2022-12-22T07:21:36;49.97;;;18.15;;
16862;SDS011;52193;48.216;-1.698;2022-12-22T07:24:03;46.10;;;17.35;;
16862;SDS011;52193;48.216;-1.698;2022-12-22T07:26:31;46.70;;;18.45;;
16862;SDS011;52193;48.216;-1.698;2022-12-22T07:28:59;47.63;;;18.20;;
16862;SDS011;52193;48.216;-1.698;2022-12-22T07:31:26;47.13;;;17.15;;
16862;SDS011;52193;48.216;-1.698;2022-12-22T07:33:53;55.47;;;18.25;;
16862;SDS011;52193;48.216;-1.698;2022-12-22T07:36:20;48.42;;;18.17;;
16862;SDS011;52193;48.216;-1.698;2022-12-22T07:38:48;54.05;;;18.48;;
16862;SDS011;52193;48.216;-1.698;2022-12-22T07:41:17;48.10;;;17.85;;
16862;SDS011;52193;48.216;-1.698;2022-12-22T07:44:03;47.58;;;17.35;;
16862;SDS011;52193;48.216;-1.698;2022-12-22T07:46:32;52.95;;;18.10;;
16862;SDS011;52193;48.216;-1.698;2022-12-22T07:49:00;50.33;;;17.95;;
16862;SDS011;52193;48.216;-1.698;2022-12-22T07:51:45;46.42;;;17.65;;
16862;SDS011;52193;48.216;-1.698;2022-12-22T07:54:13;46.60;;;17.30;;
16862;SDS011;52193;48.216;-1.698;2022-12-22T07:56:40;42.75;;;16.90;;
16862;SDS011;52193;48.216;-1.698;2022-12-22T07:59:09;48.13;;;17.55;;
16862;SDS011;52193;48.216;-1.698;2022-12-22T08:01:37;47.42;;;16.98;;
16862;SDS011;52193;48.216;-1.698;2022-12-22T08:04:05;50.60;;;18.08;;
16862;SDS011;52193;48.216;-1.698;2022-12-22T08:06:33;47.20;;;17.42;;
16862;SDS011;52193;48.216;-1.698;2022-12-22T08:09:00;47.05;;;17.77;;
16862;SDS011;52193;48.216;-1.698;2022-12-22T08:11:28;51.72;;;18.63;;
16862;SDS011;52193;48.216;-1.698;2022-12-22T08:13:55;46.92;;;17.33;;
16862;SDS011;52193;48.216;-1.698;2022-12-22T08:16:23;51.30;;;17.77;;
16862;SDS011;52193;48.216;-1.698;2022-12-22T08:18:50;51.85;;;19.38;;
16862;SDS011;52193;48.216;-1.698;2022-12-22T08:21:17;58.47;;;18.33;;
16862;SDS011;52193;48.216;-1.698;2022-12-22T08:23:44;52.10;;;17.95;;
16862;SDS011;52193;48.216;-1.698;2022-12-22T08:26:12;46.78;;;17.77;;
16862;SDS011;52193;48.216;-1.698;2022-12-22T08:28:42;51.22;;;18.33;;
16862;SDS011;52193;48.216;-1.698;2022-12-22T08:31:13;46.78;;;16.88;;
16862;SDS011;52193;48.216;-1.698;2022-12-22T08:33:41;51.10;;;17.70;;
16862;SDS011;52193;48.216;-1.698;2022-12-22T08:36:09;49.05;;;18.35;;
16862;SDS011;52193;48.216;-1.698;2022-12-22T08:38:37;53.25;;;17.33;;
16862;SDS011;52193;48.216;-1.698;2022-12-22T08:41:06;50.00;;;18.45;;
16862;SDS011;52193;48.216;-1.698;2022-12-22T08:43:34;49.78;;;19.33;;
16862;SDS011;52193;48.216;-1.698;2022-12-22T08:46:01;56.25;;;19.85;;
16862;SDS011;52193;48.216;-1.698;2022-12-22T08:48:29;56.38;;;19.27;;
16862;SDS011;52193;48.216;-1.698;2022-12-22T08:50:57;54.97;;;19.35;;
16862;SDS011;52193;48.216;-1.698;2022-12-22T08:53:24;66.25;;;20.02;;
16862;SDS011;52193;48.216;-1.698;2022-12-22T08:55:51;54.67;;;20.23;;
16862;SDS011;52193;48.216;-1.698;2022-12-22T08:58:20;55.55;;;19.73;;
16862;SDS011;52193;48.216;-1.698;2022-12-22T09:00:47;55.03;;;19.40;;
16862;SDS011;52193;48.216;-1.698;2022-12-22T09:03:14;52.30;;;19.20;;
16862;SDS011;52193;48.216;-1.698;2022-12-22T09:05:41;54.13;;;18.90;;
16862;SDS011;52193;48.216;-1.698;2022-12-22T09:08:09;61.42;;;21.13;;
16862;SDS011;52193;48.216;-1.698;2022-12-22T09:10:36;51.75;;;19.88;;
16862;SDS011;52193;48.216;-1.698;2022-12-22T09:13:06;49.72;;;19.67;;
16862;SDS011;52193;48.216;-1.698;2022-12-22T09:15:33;48.65;;;20.13;;
16862;SDS011;52193;48.216;-1.698;2022-12-22T09:18:01;54.00;;;19.40;;
16862;SDS011;52193;48.216;-1.698;2022-12-22T09:20:28;47.42;;;18.58;;
16862;SDS011;52193;48.216;-1.698;2022-12-22T09:22:55;47.67;;;18.52;;
16862;SDS011;52193;48.216;-1.698;2022-12-22T09:25:24;55.30;;;20.73;;
16862;SDS011;52193;48.216;-1.698;2022-12-22T09:27:51;52.72;;;19.85;;
16862;SDS011;52193;48.216;-1.698;2022-12-22T09:30:17;48.22;;;18.75;;
16862;SDS011;52193;48.216;-1.698;2022-12-22T09:32:45;46.67;;;19.27;;
16862;SDS011;52193;48.216;-1.698;2022-12-22T09:35:12;46.67;;;18.65;;
16862;SDS011;52193;48.216;-1.698;2022-12-22T09:37:39;49.25;;;19.08;;
16862;SDS011;52193;48.216;-1.698;2022-12-22T09:40:06;48.88;;;19.48;;
16862;SDS011;52193;48.216;-1.698;2022-12-22T09:42:36;63.03;;;19.52;;
16862;SDS011;52193;48.216;-1.698;2022-12-22T09:45:04;54.80;;;18.85;;
16862;SDS011;52193;48.216;-1.698;2022-12-22T09:47:36;53.80;;;19.75;;
16862;SDS011;52193;48.216;-1.698;2022-12-22T09:50:07;54.80;;;19.10;;
16862;SDS011;52193;48.216;-1.698;2022-12-22T09:52:41;49.95;;;19.05;;
16862;SDS011;52193;48.216;-1.698;2022-12-22T09:55:12;50.75;;;19.83;;
16862;SDS011;52193;48.216;-1.698;2022-12-22T09:57:44;52.53;;;18.83;;
16862;SDS011;52193;48.216;-1.698;2022-12-22T10:00:12;47.17;;;18.88;;
16862;SDS011;52193;48.216;-1.698;2022-12-22T10:02:43;51.50;;;19.48;;
16862;SDS011;52193;48.216;-1.698;2022-12-22T10:05:19;52.00;;;19.30;;
16862;SDS011;52193;48.216;-1.698;2022-12-22T10:07:52;50.28;;;19.25;;
16862;SDS011;52193;48.216;-1.698;2022-12-22T10:10:26;53.25;;;20.75;;
16862;SDS011;52193;48.216;-1.698;2022-12-22T10:12:57;51.35;;;19.92;;
16862;SDS011;52193;48.216;-1.698;2022-12-22T10:15:30;48.38;;;18.90;;
16862;SDS011;52193;48.216;-1.698;2022-12-22T10:18:07;51.92;;;19.92;;
16862;SDS011;52193;48.216;-1.698;2022-12-22T10:20:36;50.80;;;19.60;;
16862;SDS011;52193;48.216;-1.698;2022-12-22T10:23:11;54.35;;;22.00;;
16862;SDS011;52193;48.216;-1.698;2022-12-22T10:25:41;49.92;;;20.40;;
16862;SDS011;52193;48.216;-1.698;2022-12-22T10:28:26;50.78;;;20.17;;
16862;SDS011;52193;48.216;-1.698;2022-12-22T10:31:08;54.20;;;20.13;;
16862;SDS011;52193;48.216;-1.698;2022-12-22T10:33:37;50.05;;;20.50;;
16862;SDS011;52193;48.216;-1.698;2022-12-22T10:36:04;52.83;;;20.00;;
16862;SDS011;52193;48.216;-1.698;2022-12-22T10:38:34;46.47;;;18.60;;
16862;SDS011;52193;48.216;-1.698;2022-12-22T10:41:03;50.28;;;19.38;;
16862;SDS011;52193;48.216;-1.698;2022-12-22T10:43:40;56.13;;;20.00;;
16862;SDS011;52193;48.216;-1.698;2022-12-22T10:46:13;48.00;;;19.60;;
16862;SDS011;52193;48.216;-1.698;2022-12-22T10:48:41;52.10;;;20.13;;
16862;SDS011;52193;48.216;-1.698;2022-12-22T10:51:09;49.50;;;20.75;;
16862;SDS011;52193;48.216;-1.698;2022-12-22T10:53:39;50.83;;;19.67;;
16862;SDS011;52193;48.216;-1.698;2022-12-22T10:56:17;46.70;;;19.63;;
16862;SDS011;52193;48.216;-1.698;2022-12-22T10:58:49;56.00;;;21.42;;
16862;SDS011;52193;48.216;-1.698;2022-12-22T11:01:22;54.58;;;21.63;;
16862;SDS011;52193;48.216;-1.698;2022-12-22T11:03:50;54.28;;;21.10;;
16862;SDS011;52193;48.216;-1.698;2022-12-22T11:06:17;52.15;;;20.38;;
16862;SDS011;52193;48.216;-1.698;2022-12-22T11:08:44;55.08;;;20.77;;
16862;SDS011;52193;48.216;-1.698;2022-12-22T11:11:13;56.63;;;20.70;;
16862;SDS011;52193;48.216;-1.698;2022-12-22T11:13:53;47.55;;;19.27;;
16862;SDS011;52193;48.216;-1.698;2022-12-22T11:16:28;53.10;;;20.02;;
16862;SDS011;52193;48.216;-1.698;2022-12-22T11:19:02;46.83;;;18.98;;
16862;SDS011;52193;48.216;-1.698;2022-12-22T11:21:41;49.60;;;19.38;;
16862;SDS011;52193;48.216;-1.698;2022-12-22T11:24:19;53.42;;;20.23;;
16862;SDS011;52193;48.216;-1.698;2022-12-22T11:26:58;49.50;;;19.63;;
16862;SDS011;52193;48.216;-1.698;2022-12-22T11:29:49;44.67;;;19.05;;
16862;SDS011;52193;48.216;-1.698;2022-12-22T11:32:34;37.53;;;18.05;;
16862;SDS011;52193;48.216;-1.698;2022-12-22T11:35:18;46.83;;;20.10;;
16862;SDS011;52193;48.216;-1.698;2022-12-22T11:37:57;42.13;;;18.77;;
16862;SDS011;52193;48.216;-1.698;2022-12-22T11:40:31;37.95;;;18.25;;
16862;SDS011;52193;48.216;-1.698;2022-12-22T11:43:05;40.28;;;19.67;;
16862;SDS011;52193;48.216;-1.698;2022-12-22T11:45:51;38.70;;;18.80;;
16862;SDS011;52193;48.216;-1.698;2022-12-22T11:51:26;47.22;;;18.35;;
16862;SDS011;52193;48.216;-1.698;2022-12-22T11:54:13;42.03;;;18.48;;
16862;SDS011;52193;48.216;-1.698;2022-12-22T11:56:55;37.03;;;17.63;;
16862;SDS011;52193;48.216;-1.698;2022-12-22T11:59:30;30.15;;;17.80;;
16862;SDS011;52193;48.216;-1.698;2022-12-22T12:02:16;27.77;;;17.42;;
16862;SDS011;52193;48.216;-1.698;2022-12-22T12:05:08;26.75;;;17.25;;
16862;SDS011;52193;48.216;-1.698;2022-12-22T12:07:59;28.65;;;17.48;;
16862;SDS011;52193;48.216;-1.698;2022-12-22T12:10:34;25.08;;;16.90;;
16862;SDS011;52193;48.216;-1.698;2022-12-22T12:13:09;24.08;;;16.88;;
16862;SDS011;52193;48.216;-1.698;2022-12-22T12:15:45;21.80;;;16.05;;
16862;SDS011;52193;48.216;-1.698;2022-12-22T12:18:30;19.08;;;15.52;;
16862;SDS011;52193;48.216;-1.698;2022-12-22T12:21:14;24.70;;;15.43;;
16862;SDS011;52193;48.216;-1.698;2022-12-22T12:23:55;20.13;;;15.15;;
16862;SDS011;52193;48.216;-1.698;2022-12-22T12:26:34;22.02;;;15.95;;
16862;SDS011;52193;48.216;-1.698;2022-12-22T12:29:10;16.20;;;14.85;;
16862;SDS011;52193;48.216;-1.698;2022-12-22T12:31:43;15.63;;;14.43;;
16862;SDS011;52193;48.216;-1.698;2022-12-22T12:34:14;16.10;;;14.80;;
16862;SDS011;52193;48.216;-1.698;2022-12-22T12:36:44;16.60;;;15.20;;
16862;SDS011;52193;48.216;-1.698;2022-12-22T12:39:17;16.23;;;15.02;;
16862;SDS011;52193;48.216;-1.698;2022-12-22T12:41:52;17.02;;;15.88;;
16862;SDS011;52193;48.216;-1.698;2022-12-22T12:44:24;16.10;;;15.10;;
16862;SDS011;52193;48.216;-1.698;2022-12-22T12:50:27;15.15;;;14.23;;
16862;SDS011;52193;48.216;-1.698;2022-12-22T12:53:03;15.57;;;14.48;;
16862;SDS011;52193;48.216;-1.698;2022-12-22T12:55:33;15.43;;;14.52;;
16862;SDS011;52193;48.216;-1.698;2022-12-22T13:10:37;15.80;;;15.10;;
16862;SDS011;52193;48.216;-1.698;2022-12-22T13:13:08;15.45;;;14.65;;
16862;SDS011;52193;48.216;-1.698;2022-12-22T13:15:37;15.88;;;15.07;;
16862;SDS011;52193;48.216;-1.698;2022-12-22T13:18:08;18.00;;;16.92;;
16862;SDS011;52193;48.216;-1.698;2022-12-22T13:20:52;15.95;;;15.05;;
16862;SDS011;52193;48.216;-1.698;2022-12-22T13:23:23;16.38;;;15.30;;
16862;SDS011;52193;48.216;-1.698;2022-12-22T13:25:55;15.93;;;15.13;;
16862;SDS011;52193;48.216;-1.698;2022-12-22T13:28:24;15.55;;;14.85;;
16862;SDS011;52193;48.216;-1.698;2022-12-22T13:30:55;15.30;;;14.60;;
16862;SDS011;52193;48.216;-1.698;2022-12-22T13:33:26;16.13;;;15.32;;
16862;SDS011;52193;48.216;-1.698;2022-12-22T13:35:56;15.80;;;15.00;;
16862;SDS011;52193;48.216;-1.698;2022-12-22T13:38:29;15.80;;;15.00;;
16862;SDS011;52193;48.216;-1.698;2022-12-22T13:40:57;15.77;;;14.98;;
16862;SDS011;52193;48.216;-1.698;2022-12-22T13:43:26;15.65;;;14.95;;
16862;SDS011;52193;48.216;-1.698;2022-12-22T13:45:56;15.48;;;14.77;;
16862;SDS011;52193;48.216;-1.698;2022-12-22T13:48:26;15.48;;;14.77;;
16862;SDS011;52193;48.216;-1.698;2022-12-22T13:50:57;15.90;;;15.10;;
16862;SDS011;52193;48.216;-1.698;2022-12-22T13:53:29;15.10;;;14.43;;
16862;SDS011;52193;48.216;-1.698;2022-12-22T13:55:59;15.50;;;14.88;;
16862;SDS011;52193;48.216;-1.698;2022-12-22T13:58:27;15.90;;;15.20;;
16862;SDS011;52193;48.216;-1.698;2022-12-22T14:01:01;15.25;;;14.55;;
16862;SDS011;52193;48.216;-1.698;2022-12-22T14:03:38;15.93;;;15.23;;
16862;SDS011;52193;48.216;-1.698;2022-12-22T14:06:22;15.80;;;15.00;;
16862;SDS011;52193;48.216;-1.698;2022-12-22T14:08:54;14.93;;;14.32;;
16862;SDS011;52193;48.216;-1.698;2022-12-22T14:11:36;15.68;;;14.85;;
16862;SDS011;52193;48.216;-1.698;2022-12-22T14:14:05;15.40;;;14.60;;
16862;SDS011;52193;48.216;-1.698;2022-12-22T14:16:33;14.75;;;14.15;;
16862;SDS011;52193;48.216;-1.698;2022-12-22T14:19:00;15.10;;;14.40;;
